Aviation Digital Data Service (ADDS)

Output produced by METARs form (1954 UTC 23 January 2019)
found at http://www.aviationweather.gov/metar/data/
 
METAR text: GCXO 231930Z 31006KT 250V350 9999 OVC018 12/08 Q1024 NOSIG
Conditions at: GCXO (TENERIFE/LOS ROD, ES) observed 1930 UTC 23 January 2019
Temperature: 12.0°C (54°F)
Dewpoint: 8.0°C (46°F) [RH = 76%]
Pressure (altimeter): 30.24 inches Hg (1024.0 mb)
Winds: from the NW (310 degrees) at 7 MPH (6 knots; 3.1 m/s)
Visibility: 6 or more miles (10+ km)
Ceiling: 1800 feet AGL
Clouds: overcast cloud deck at 1800 feet AGL
Weather: no significant weather observed at this time

METAR text: GCXO 231900Z 34006KT 300V030 9999 OVC020 12/07 Q1024 NOSIG
Conditions at: GCXO (TENERIFE/LOS ROD, ES) observed 1900 UTC 23 January 2019
Temperature: 12.0°C (54°F)
Dewpoint: 7.0°C (45°F) [RH = 71%]
Pressure (altimeter): 30.24 inches Hg (1024.0 mb)
Winds: from the NNW (340 degrees) at 7 MPH (6 knots; 3.1 m/s)
Visibility: 6 or more miles (10+ km)
Ceiling: 2000 feet AGL
Clouds: overcast cloud deck at 2000 feet AGL
Weather: no significant weather observed at this time

METAR text: GCXO 231830Z 35008KT 300V030 9999 OVC020 12/07 Q1024 NOSIG
Conditions at: GCXO (TENERIFE/LOS ROD, ES) observed 1830 UTC 23 January 2019
Temperature: 12.0°C (54°F)
Dewpoint: 7.0°C (45°F) [RH = 71%]
Pressure (altimeter): 30.24 inches Hg (1024.0 mb)
Winds: from the N (350 degrees) at 9 MPH (8 knots; 4.1 m/s)
Visibility: 6 or more miles (10+ km)
Ceiling: 2000 feet AGL
Clouds: overcast cloud deck at 2000 feet AGL
Weather: no significant weather observed at this time

METAR text: GCXO 231800Z 35006KT 300V030 9999 OVC022 12/07 Q1024 NOSIG
Conditions at: GCXO (TENERIFE/LOS ROD, ES) observed 1800 UTC 23 January 2019
Temperature: 12.0°C (54°F)
Dewpoint: 7.0°C (45°F) [RH = 71%]
Pressure (altimeter): 30.24 inches Hg (1024.0 mb)
Winds: from the N (350 degrees) at 7 MPH (6 knots; 3.1 m/s)
Visibility: 6 or more miles (10+ km)
Ceiling: 2200 feet AGL
Clouds: overcast cloud deck at 2200 feet AGL
Weather: no significant weather observed at this time

METAR text: GCXO 231730Z 33007KT 300V010 9999 BKN024 12/07 Q1024 NOSIG
Conditions at: GCXO (TENERIFE/LOS ROD, ES) observed 1730 UTC 23 January 2019
Temperature: 12.0°C (54°F)
Dewpoint: 7.0°C (45°F) [RH = 71%]
Pressure (altimeter): 30.24 inches Hg (1024.0 mb)
Winds: from the NNW (330 degrees) at 8 MPH (7 knots; 3.6 m/s)
Visibility: 6 or more miles (10+ km)
Ceiling: 2400 feet AGL
Clouds: broken clouds at 2400 feet AGL
Weather: no significant weather observed at this time

METAR text: GCXO 231700Z 35007KT 300V030 9999 BKN023 12/07 Q1024 NOSIG
Conditions at: GCXO (TENERIFE/LOS ROD, ES) observed 1700 UTC 23 January 2019
Temperature: 12.0°C (54°F)
Dewpoint: 7.0°C (45°F) [RH = 71%]
Pressure (altimeter): 30.24 inches Hg (1024.0 mb)
Winds: from the N (350 degrees) at 8 MPH (7 knots; 3.6 m/s)
Visibility: 6 or more miles (10+ km)
Ceiling: 2300 feet AGL
Clouds: broken clouds at 2300 feet AGL
Weather: no significant weather observed at this time

METAR text: GCXO 231630Z 34007KT 280V060 9999 BKN022 13/08 Q1024 NOSIG
Conditions at: GCXO (TENERIFE/LOS ROD, ES) observed 1630 UTC 23 January 2019
Temperature: 13.0°C (55°F)
Dewpoint: 8.0°C (46°F) [RH = 72%]
Pressure (altimeter): 30.24 inches Hg (1024.0 mb)
Winds: from the NNW (340 degrees) at 8 MPH (7 knots; 3.6 m/s)
Visibility: 6 or more miles (10+ km)
Ceiling: 2200 feet AGL
Clouds: broken clouds at 2200 feet AGL
Weather: no significant weather observed at this time

METAR text: GCXO 231600Z 33008KT 300V030 9999 BKN021 13/08 Q1024 NOSIG
Conditions at: GCXO (TENERIFE/LOS ROD, ES) observed 1600 UTC 23 January 2019
Temperature: 13.0°C (55°F)
Dewpoint: 8.0°C (46°F) [RH = 72%]
Pressure (altimeter): 30.24 inches Hg (1024.0 mb)
Winds: from the NNW (330 degrees) at 9 MPH (8 knots; 4.1 m/s)
Visibility: 6 or more miles (10+ km)
Ceiling: 2100 feet AGL
Clouds: broken clouds at 2100 feet AGL
Weather: no significant weather observed at this time

METAR text: GCXO 231530Z 35008KT 320V050 9999 BKN021 13/08 Q1024 NOSIG
Conditions at: GCXO (TENERIFE/LOS ROD, ES) observed 1530 UTC 23 January 2019
Temperature: 13.0°C (55°F)
Dewpoint: 8.0°C (46°F) [RH = 72%]
Pressure (altimeter): 30.24 inches Hg (1024.0 mb)
Winds: from the N (350 degrees) at 9 MPH (8 knots; 4.1 m/s)
Visibility: 6 or more miles (10+ km)
Ceiling: 2100 feet AGL
Clouds: broken clouds at 2100 feet AGL
Weather: no significant weather observed at this time

METAR text: GCXO 231500Z 35007KT 300V010 9999 OVC021 13/08 Q1025 NOSIG
Conditions at: GCXO (TENERIFE/LOS ROD, ES) observed 1500 UTC 23 January 2019
Temperature: 13.0°C (55°F)
Dewpoint: 8.0°C (46°F) [RH = 72%]
Pressure (altimeter): 30.27 inches Hg (1025.0 mb)
Winds: from the N (350 degrees) at 8 MPH (7 knots; 3.6 m/s)
Visibility: 6 or more miles (10+ km)
Ceiling: 2100 feet AGL
Clouds: overcast cloud deck at 2100 feet AGL
Weather: no significant weather observed at this time

METAR text: GCXO 231430Z 36009KT 330V050 9999 BKN021 13/08 Q1025 NOSIG
Conditions at: GCXO (TENERIFE/LOS ROD, ES) observed 1430 UTC 23 January 2019
Temperature: 13.0°C (55°F)
Dewpoint: 8.0°C (46°F) [RH = 72%]
Pressure (altimeter): 30.27 inches Hg (1025.0 mb)
Winds: from the N (360 degrees) at 10 MPH (9 knots; 4.6 m/s)
Visibility: 6 or more miles (10+ km)
Ceiling: 2100 feet AGL
Clouds: broken clouds at 2100 feet AGL
Weather: no significant weather observed at this time

METAR text: GCXO 231400Z 01009KT 340V050 9999 BKN022 13/08 Q1025 NOSIG
Conditions at: GCXO (TENERIFE/LOS ROD, ES) observed 1400 UTC 23 January 2019
Temperature: 13.0°C (55°F)
Dewpoint: 8.0°C (46°F) [RH = 72%]
Pressure (altimeter): 30.27 inches Hg (1025.0 mb)
Winds: from the N (10 degrees) at 10 MPH (9 knots; 4.6 m/s)
Visibility: 6 or more miles (10+ km)
Ceiling: 2200 feet AGL
Clouds: broken clouds at 2200 feet AGL
Weather: no significant weather observed at this time

METAR text: GCXO 231330Z 01008KT 300V080 9999 BKN021 15/09 Q1026 NOSIG
Conditions at: GCXO (TENERIFE/LOS ROD, ES) observed 1330 UTC 23 January 2019
Temperature: 15.0°C (59°F)
Dewpoint: 9.0°C (48°F) [RH = 67%]
Pressure (altimeter): 30.30 inches Hg (1026.0 mb)
Winds: from the N (10 degrees) at 9 MPH (8 knots; 4.1 m/s)
Visibility: 6 or more miles (10+ km)
Ceiling: 2100 feet AGL
Clouds: broken clouds at 2100 feet AGL
Weather: no significant weather observed at this time

METAR text: GCXO 231300Z VRB06KT 9999 BKN021 13/08 Q1026 NOSIG
Conditions at: GCXO (TENERIFE/LOS ROD, ES) observed 1300 UTC 23 January 2019
Temperature: 13.0°C (55°F)
Dewpoint: 8.0°C (46°F) [RH = 72%]
Pressure (altimeter): 30.30 inches Hg (1026.0 mb)
Winds: variable direction winds at 7 MPH (6 knots; 3.1 m/s)
Visibility: 6 or more miles (10+ km)
Ceiling: 2100 feet AGL
Clouds: broken clouds at 2100 feet AGL
Weather: no significant weather observed at this time

METAR text: GCXO 231230Z 01008KT 320V060 9999 BKN022 14/09 Q1027 NOSIG
Conditions at: GCXO (TENERIFE/LOS ROD, ES) observed 1230 UTC 23 January 2019
Temperature: 14.0°C (57°F)
Dewpoint: 9.0°C (48°F) [RH = 72%]
Pressure (altimeter): 30.32 inches Hg (1027.0 mb)
Winds: from the N (10 degrees) at 9 MPH (8 knots; 4.1 m/s)
Visibility: 6 or more miles (10+ km)
Ceiling: 2200 feet AGL
Clouds: broken clouds at 2200 feet AGL
Weather: no significant weather observed at this time

METAR text: GCXO 231200Z 02009KT 330V060 9999 BKN022 13/07 Q1027 NOSIG
Conditions at: GCXO (TENERIFE/LOS ROD, ES) observed 1200 UTC 23 January 2019
Temperature: 13.0°C (55°F)
Dewpoint: 7.0°C (45°F) [RH = 67%]
Pressure (altimeter): 30.32 inches Hg (1027.0 mb)
Winds: from the NNE (20 degrees) at 10 MPH (9 knots; 4.6 m/s)
Visibility: 6 or more miles (10+ km)
Ceiling: 2200 feet AGL
Clouds: broken clouds at 2200 feet AGL
Weather: no significant weather observed at this time

METAR text: GCXO 231130Z 01006KT 330V070 9999 BKN021 13/08 Q1027 NOSIG
Conditions at: GCXO (TENERIFE/LOS ROD, ES) observed 1130 UTC 23 January 2019
Temperature: 13.0°C (55°F)
Dewpoint: 8.0°C (46°F) [RH = 72%]
Pressure (altimeter): 30.32 inches Hg (1027.0 mb)
Winds: from the N (10 degrees) at 7 MPH (6 knots; 3.1 m/s)
Visibility: 6 or more miles (10+ km)
Ceiling: 2100 feet AGL
Clouds: broken clouds at 2100 feet AGL
Weather: no significant weather observed at this time

METAR text: GCXO 231100Z 36006KT 300V030 9999 OVC019 13/09 Q1027 NOSIG
Conditions at: GCXO (TENERIFE/LOS ROD, ES) observed 1100 UTC 23 January 2019
Temperature: 13.0°C (55°F)
Dewpoint: 9.0°C (48°F) [RH = 77%]
Pressure (altimeter): 30.32 inches Hg (1027.0 mb)
Winds: from the N (360 degrees) at 7 MPH (6 knots; 3.1 m/s)
Visibility: 6 or more miles (10+ km)
Ceiling: 1900 feet AGL
Clouds: overcast cloud deck at 1900 feet AGL
Weather: no significant weather observed at this time

METAR text: GCXO 231030Z VRB02KT 9999 OVC020 13/08 Q1027 NOSIG
Conditions at: GCXO (TENERIFE/LOS ROD, ES) observed 1030 UTC 23 January 2019
Temperature: 13.0°C (55°F)
Dewpoint: 8.0°C (46°F) [RH = 72%]
Pressure (altimeter): 30.32 inches Hg (1027.0 mb)
Winds: variable direction winds at 2 MPH (2 knots; 1.0 m/s)
Visibility: 6 or more miles (10+ km)
Ceiling: 2000 feet AGL
Clouds: overcast cloud deck at 2000 feet AGL
Weather: no significant weather observed at this time

METAR text: GCXO 231000Z VRB02KT 9999 OVC021 12/07 Q1027 NOSIG
Conditions at: GCXO (TENERIFE/LOS ROD, ES) observed 1000 UTC 23 January 2019
Temperature: 12.0°C (54°F)
Dewpoint: 7.0°C (45°F) [RH = 71%]
Pressure (altimeter): 30.32 inches Hg (1027.0 mb)
Winds: variable direction winds at 2 MPH (2 knots; 1.0 m/s)
Visibility: 6 or more miles (10+ km)
Ceiling: 2100 feet AGL
Clouds: overcast cloud deck at 2100 feet AGL
Weather: no significant weather observed at this time

METAR text: GCXO 230930Z 04004KT 340V120 9999 BKN022 11/07 Q1027 NOSIG
Conditions at: GCXO (TENERIFE/LOS ROD, ES) observed 0930 UTC 23 January 2019
Temperature: 11.0°C (52°F)
Dewpoint: 7.0°C (45°F) [RH = 76%]
Pressure (altimeter): 30.32 inches Hg (1027.0 mb)
Winds: from the NE (40 degrees) at 5 MPH (4 knots; 2.1 m/s)
Visibility: 6 or more miles (10+ km)
Ceiling: 2200 feet AGL
Clouds: broken clouds at 2200 feet AGL
Weather: no significant weather observed at this time

METAR text: GCXO 230900Z 01005KT 320V050 9999 BKN020 11/07 Q1026 NOSIG
Conditions at: GCXO (TENERIFE/LOS ROD, ES) observed 0900 UTC 23 January 2019
Temperature: 11.0°C (52°F)
Dewpoint: 7.0°C (45°F) [RH = 76%]
Pressure (altimeter): 30.30 inches Hg (1026.0 mb)
Winds: from the N (10 degrees) at 6 MPH (5 knots; 2.6 m/s)
Visibility: 6 or more miles (10+ km)
Ceiling: 2000 feet AGL
Clouds: broken clouds at 2000 feet AGL
Weather: no significant weather observed at this time

METAR text: GCXO 230830Z 02004KT 340V070 9999 OVC018 11/08 Q1026 NOSIG
Conditions at: GCXO (TENERIFE/LOS ROD, ES) observed 0830 UTC 23 January 2019
Temperature: 11.0°C (52°F)
Dewpoint: 8.0°C (46°F) [RH = 82%]
Pressure (altimeter): 30.30 inches Hg (1026.0 mb)
Winds: from the NNE (20 degrees) at 5 MPH (4 knots; 2.1 m/s)
Visibility: 6 or more miles (10+ km)
Ceiling: 1800 feet AGL
Clouds: overcast cloud deck at 1800 feet AGL
Weather: no significant weather observed at this time

METAR text: GCXO 230800Z 02004KT 330V120 9999 OVC019 11/07 Q1026 NOSIG
Conditions at: GCXO (TENERIFE/LOS ROD, ES) observed 0800 UTC 23 January 2019
Temperature: 11.0°C (52°F)
Dewpoint: 7.0°C (45°F) [RH = 76%]
Pressure (altimeter): 30.30 inches Hg (1026.0 mb)
Winds: from the NNE (20 degrees) at 5 MPH (4 knots; 2.1 m/s)
Visibility: 6 or more miles (10+ km)
Ceiling: 1900 feet AGL
Clouds: overcast cloud deck at 1900 feet AGL
Weather: no significant weather observed at this time

METAR text: GCXO 230730Z 06003KT 340V120 9999 OVC024 11/06 Q1026 NOSIG
Conditions at: GCXO (TENERIFE/LOS ROD, ES) observed 0730 UTC 23 January 2019
Temperature: 11.0°C (52°F)
Dewpoint: 6.0°C (43°F) [RH = 71%]
Pressure (altimeter): 30.30 inches Hg (1026.0 mb)
Winds: from the ENE (60 degrees) at 3 MPH (3 knots; 1.5 m/s)
Visibility: 6 or more miles (10+ km)
Ceiling: 2400 feet AGL
Clouds: overcast cloud deck at 2400 feet AGL
Weather: no significant weather observed at this time

METAR text: GCXO 230700Z 03005KT 340V070 9999 OVC023 11/07 Q1026 NOSIG
Conditions at: GCXO (TENERIFE/LOS ROD, ES) observed 0700 UTC 23 January 2019
Temperature: 11.0°C (52°F)
Dewpoint: 7.0°C (45°F) [RH = 76%]
Pressure (altimeter): 30.30 inches Hg (1026.0 mb)
Winds: from the NNE (30 degrees) at 6 MPH (5 knots; 2.6 m/s)
Visibility: 6 or more miles (10+ km)
Ceiling: 2300 feet AGL
Clouds: overcast cloud deck at 2300 feet AGL
Weather: no significant weather observed at this time

METAR text: GCXO 230630Z 01004KT 330V050 9999 OVC023 11/06 Q1026 NOSIG
Conditions at: GCXO (TENERIFE/LOS ROD, ES) observed 0630 UTC 23 January 2019
Temperature: 11.0°C (52°F)
Dewpoint: 6.0°C (43°F) [RH = 71%]
Pressure (altimeter): 30.30 inches Hg (1026.0 mb)
Winds: from the N (10 degrees) at 5 MPH (4 knots; 2.1 m/s)
Visibility: 6 or more miles (10+ km)
Ceiling: 2300 feet AGL
Clouds: overcast cloud deck at 2300 feet AGL
Weather: no significant weather observed at this time

METAR text: GCXO 230600Z 06005KT 010V120 9999 OVC026 11/06 Q1026 NOSIG
Conditions at: GCXO (TENERIFE/LOS ROD, ES) observed 0600 UTC 23 January 2019
Temperature: 11.0°C (52°F)
Dewpoint: 6.0°C (43°F) [RH = 71%]
Pressure (altimeter): 30.30 inches Hg (1026.0 mb)
Winds: from the ENE (60 degrees) at 6 MPH (5 knots; 2.6 m/s)
Visibility: 6 or more miles (10+ km)
Ceiling: 2600 feet AGL
Clouds: overcast cloud deck at 2600 feet AGL
Weather: no significant weather observed at this time

METAR text: GCXO 230530Z AUTO VRB02KT 9999 OVC025/// 11/07 Q1026
Conditions at: GCXO (TENERIFE/LOS ROD, ES) observed 0530 UTC 23 January 2019
Temperature: 11.0°C (52°F)
Dewpoint: 7.0°C (45°F) [RH = 76%]
Pressure (altimeter): 30.30 inches Hg (1026.0 mb)
Winds: variable direction winds at 2 MPH (2 knots; 1.0 m/s)
Visibility: 6 or more miles (10+ km)
Ceiling: 2500 feet AGL
Clouds: overcast cloud deck at 2500 feet AGL
Weather: no significant weather observed at this time

METAR text: GCXO 230500Z AUTO 04003KT 350V080 9999 OVC025/// 11/06 Q1026
Conditions at: GCXO (TENERIFE/LOS ROD, ES) observed 0500 UTC 23 January 2019
Temperature: 11.0°C (52°F)
Dewpoint: 6.0°C (43°F) [RH = 71%]
Pressure (altimeter): 30.30 inches Hg (1026.0 mb)
Winds: from the NE (40 degrees) at 3 MPH (3 knots; 1.5 m/s)
Visibility: 6 or more miles (10+ km)
Ceiling: 2500 feet AGL
Clouds: overcast cloud deck at 2500 feet AGL
Weather: no significant weather observed at this time

METAR text: GCXO 230430Z AUTO 07005KT 010V100 9999 OVC026/// 11/06 Q1026
Conditions at: GCXO (TENERIFE/LOS ROD, ES) observed 0430 UTC 23 January 2019
Temperature: 11.0°C (52°F)
Dewpoint: 6.0°C (43°F) [RH = 71%]
Pressure (altimeter): 30.30 inches Hg (1026.0 mb)
Winds: from the ENE (70 degrees) at 6 MPH (5 knots; 2.6 m/s)
Visibility: 6 or more miles (10+ km)
Ceiling: 2600 feet AGL
Clouds: overcast cloud deck at 2600 feet AGL
Weather: no significant weather observed at this time

METAR text: GCXO 230400Z AUTO 05006KT 010V100 9999 OVC026/// 11/07 Q1027
Conditions at: GCXO (TENERIFE/LOS ROD, ES) observed 0400 UTC 23 January 2019
Temperature: 11.0°C (52°F)
Dewpoint: 7.0°C (45°F) [RH = 76%]
Pressure (altimeter): 30.32 inches Hg (1027.0 mb)
Winds: from the NE (50 degrees) at 7 MPH (6 knots; 3.1 m/s)
Visibility: 6 or more miles (10+ km)
Ceiling: 2600 feet AGL
Clouds: overcast cloud deck at 2600 feet AGL
Weather: no significant weather observed at this time

METAR text: GCXO 230330Z AUTO 06006KT 010V100 9999 OVC025/// 11/07 Q1027
Conditions at: GCXO (TENERIFE/LOS ROD, ES) observed 0330 UTC 23 January 2019
Temperature: 11.0°C (52°F)
Dewpoint: 7.0°C (45°F) [RH = 76%]
Pressure (altimeter): 30.32 inches Hg (1027.0 mb)
Winds: from the ENE (60 degrees) at 7 MPH (6 knots; 3.1 m/s)
Visibility: 6 or more miles (10+ km)
Ceiling: 2500 feet AGL
Clouds: overcast cloud deck at 2500 feet AGL
Weather: no significant weather observed at this time

METAR text: GCXO 230300Z AUTO 09004KT 050V120 9999 SCT021/// OVC027/// 11/08 Q1027
Conditions at: GCXO (TENERIFE/LOS ROD, ES) observed 0300 UTC 23 January 2019
Temperature: 11.0°C (52°F)
Dewpoint: 8.0°C (46°F) [RH = 82%]
Pressure (altimeter): 30.32 inches Hg (1027.0 mb)
Winds: from the E (90 degrees) at 5 MPH (4 knots; 2.1 m/s)
Visibility: 6 or more miles (10+ km)
Ceiling: 2700 feet AGL
Clouds: scattered clouds at 2100 feet AGL
overcast cloud deck at 2700 feet AGL
Weather: no significant weather observed at this time

METAR text: GCXO 230230Z AUTO 14003KT 100V170 9000 OVC025/// 11/08 Q1027
Conditions at: GCXO (TENERIFE/LOS ROD, ES) observed 0230 UTC 23 January 2019
Temperature: 11.0°C (52°F)
Dewpoint: 8.0°C (46°F) [RH = 82%]
Pressure (altimeter): 30.32 inches Hg (1027.0 mb)
Winds: from the SE (140 degrees) at 3 MPH (3 knots; 1.5 m/s)
Visibility: 6 miles ( 9 km)
Ceiling: 2500 feet AGL
Clouds: overcast cloud deck at 2500 feet AGL
Weather: no significant weather observed at this time

METAR text: GCXO 230200Z AUTO 12004KT 100V170 9000 BKN023/// OVC029/// 11/08 Q1027
Conditions at: GCXO (TENERIFE/LOS ROD, ES) observed 0200 UTC 23 January 2019
Temperature: 11.0°C (52°F)
Dewpoint: 8.0°C (46°F) [RH = 82%]
Pressure (altimeter): 30.32 inches Hg (1027.0 mb)
Winds: from the ESE (120 degrees) at 5 MPH (4 knots; 2.1 m/s)
Visibility: 6 miles ( 9 km)
Ceiling: 2300 feet AGL
Clouds: broken clouds at 2300 feet AGL
overcast cloud deck at 2900 feet AGL
Weather: no significant weather observed at this time

METAR text: GCXO 230130Z AUTO 11004KT 080V150 9999 OVC026/// 11/07 Q1027
Conditions at: GCXO (TENERIFE/LOS ROD, ES) observed 0130 UTC 23 January 2019
Temperature: 11.0°C (52°F)
Dewpoint: 7.0°C (45°F) [RH = 76%]
Pressure (altimeter): 30.32 inches Hg (1027.0 mb)
Winds: from the ESE (110 degrees) at 5 MPH (4 knots; 2.1 m/s)
Visibility: 6 or more miles (10+ km)
Ceiling: 2600 feet AGL
Clouds: overcast cloud deck at 2600 feet AGL
Weather: no significant weather observed at this time

METAR text: GCXO 230100Z AUTO 10005KT 070V170 9999 BKN025/// 11/07 Q1027
Conditions at: GCXO (TENERIFE/LOS ROD, ES) observed 0100 UTC 23 January 2019
Temperature: 11.0°C (52°F)
Dewpoint: 7.0°C (45°F) [RH = 76%]
Pressure (altimeter): 30.32 inches Hg (1027.0 mb)
Winds: from the E (100 degrees) at 6 MPH (5 knots; 2.6 m/s)
Visibility: 6 or more miles (10+ km)
Ceiling: 2500 feet AGL
Clouds: broken clouds at 2500 feet AGL
Weather: no significant weather observed at this time

METAR text: GCXO 230030Z AUTO 08004KT 050V120 9999 OVC023/// 11/08 Q1027
Conditions at: GCXO (TENERIFE/LOS ROD, ES) observed 0030 UTC 23 January 2019
Temperature: 11.0°C (52°F)
Dewpoint: 8.0°C (46°F) [RH = 82%]
Pressure (altimeter): 30.32 inches Hg (1027.0 mb)
Winds: from the E (80 degrees) at 5 MPH (4 knots; 2.1 m/s)
Visibility: 6 or more miles (10+ km)
Ceiling: 2300 feet AGL
Clouds: overcast cloud deck at 2300 feet AGL
Weather: no significant weather observed at this time

METAR text: GCXO 230000Z AUTO 09004KT 030V120 9000 BKN022/// OVC027/// 11/08 Q1027
Conditions at: GCXO (TENERIFE/LOS ROD, ES) observed 0000 UTC 23 January 2019
Temperature: 11.0°C (52°F)
Dewpoint: 8.0°C (46°F) [RH = 82%]
Pressure (altimeter): 30.32 inches Hg (1027.0 mb)
Winds: from the E (90 degrees) at 5 MPH (4 knots; 2.1 m/s)
Visibility: 6 miles ( 9 km)
Ceiling: 2200 feet AGL
Clouds: broken clouds at 2200 feet AGL
overcast cloud deck at 2700 feet AGL
Weather: no significant weather observed at this time

METAR text: GCXO 222330Z AUTO 10003KT 9999 SCT022/// BKN029/// 11/09 Q1027
Conditions at: GCXO (TENERIFE/LOS ROD, ES) observed 2330 UTC 22 January 2019
Temperature: 11.0°C (52°F)
Dewpoint: 9.0°C (48°F) [RH = 87%]
Pressure (altimeter): 30.32 inches Hg (1027.0 mb)
Winds: from the E (100 degrees) at 3 MPH (3 knots; 1.5 m/s)
Visibility: 6 or more miles (10+ km)
Ceiling: 2900 feet AGL
Clouds: scattered clouds at 2200 feet AGL
broken clouds at 2900 feet AGL
Weather: no significant weather observed at this time

METAR text: GCXO 222300Z 06004KT 010V150 9999 FEW006 BKN030 12/08 Q1027 NOSIG
Conditions at: GCXO (TENERIFE/LOS ROD, ES) observed 2300 UTC 22 January 2019
Temperature: 12.0°C (54°F)
Dewpoint: 8.0°C (46°F) [RH = 76%]
Pressure (altimeter): 30.32 inches Hg (1027.0 mb)
Winds: from the ENE (60 degrees) at 5 MPH (4 knots; 2.1 m/s)
Visibility: 6 or more miles (10+ km)
Ceiling: 3000 feet AGL
Clouds: few clouds at 600 feet AGL
broken clouds at 3000 feet AGL
Weather: no significant weather observed at this time

METAR text: GCXO 222230Z VRB02KT 9999 FEW006 BKN028 12/08 Q1027 NOSIG
Conditions at: GCXO (TENERIFE/LOS ROD, ES) observed 2230 UTC 22 January 2019
Temperature: 12.0°C (54°F)
Dewpoint: 8.0°C (46°F) [RH = 76%]
Pressure (altimeter): 30.32 inches Hg (1027.0 mb)
Winds: variable direction winds at 2 MPH (2 knots; 1.0 m/s)
Visibility: 6 or more miles (10+ km)
Ceiling: 2800 feet AGL
Clouds: few clouds at 600 feet AGL
broken clouds at 2800 feet AGL
Weather: no significant weather observed at this time

METAR text: GCXO 222200Z 06005KT 010V100 9999 FEW010 BKN024 12/08 Q1027 NOSIG
Conditions at: GCXO (TENERIFE/LOS ROD, ES) observed 2200 UTC 22 January 2019
Temperature: 12.0°C (54°F)
Dewpoint: 8.0°C (46°F) [RH = 76%]
Pressure (altimeter): 30.32 inches Hg (1027.0 mb)
Winds: from the ENE (60 degrees) at 6 MPH (5 knots; 2.6 m/s)
Visibility: 6 or more miles (10+ km)
Ceiling: 2400 feet AGL
Clouds: few clouds at 1000 feet AGL
broken clouds at 2400 feet AGL
Weather: no significant weather observed at this time

METAR text: GCXO 222130Z 07004KT 030V140 9999 FEW010 BKN028 12/07 Q1027 NOSIG
Conditions at: GCXO (TENERIFE/LOS ROD, ES) observed 2130 UTC 22 January 2019
Temperature: 12.0°C (54°F)
Dewpoint: 7.0°C (45°F) [RH = 71%]
Pressure (altimeter): 30.32 inches Hg (1027.0 mb)
Winds: from the ENE (70 degrees) at 5 MPH (4 knots; 2.1 m/s)
Visibility: 6 or more miles (10+ km)
Ceiling: 2800 feet AGL
Clouds: few clouds at 1000 feet AGL
broken clouds at 2800 feet AGL
Weather: no significant weather observed at this time

METAR text: GCXO 222100Z 09004KT 060V120 9999 FEW010 BKN024 12/08 Q1027 NOSIG
Conditions at: GCXO (TENERIFE/LOS ROD, ES) observed 2100 UTC 22 January 2019
Temperature: 12.0°C (54°F)
Dewpoint: 8.0°C (46°F) [RH = 76%]
Pressure (altimeter): 30.32 inches Hg (1027.0 mb)
Winds: from the E (90 degrees) at 5 MPH (4 knots; 2.1 m/s)
Visibility: 6 or more miles (10+ km)
Ceiling: 2400 feet AGL
Clouds: few clouds at 1000 feet AGL
broken clouds at 2400 feet AGL
Weather: no significant weather observed at this time

METAR text: GCXO 222030Z 08005KT 050V120 9999 FEW012 BKN027 12/07 Q1026 NOSIG
Conditions at: GCXO (TENERIFE/LOS ROD, ES) observed 2030 UTC 22 January 2019
Temperature: 12.0°C (54°F)
Dewpoint: 7.0°C (45°F) [RH = 71%]
Pressure (altimeter): 30.30 inches Hg (1026.0 mb)
Winds: from the E (80 degrees) at 6 MPH (5 knots; 2.6 m/s)
Visibility: 6 or more miles (10+ km)
Ceiling: 2700 feet AGL
Clouds: few clouds at 1200 feet AGL
broken clouds at 2700 feet AGL
Weather: no significant weather observed at this time

METAR text: GCXO 222000Z 08004KT 060V120 9999 FEW012 BKN024 12/07 Q1026 NOSIG
Conditions at: GCXO (TENERIFE/LOS ROD, ES) observed 2000 UTC 22 January 2019
Temperature: 12.0°C (54°F)
Dewpoint: 7.0°C (45°F) [RH = 71%]
Pressure (altimeter): 30.30 inches Hg (1026.0 mb)
Winds: from the E (80 degrees) at 5 MPH (4 knots; 2.1 m/s)
Visibility: 6 or more miles (10+ km)
Ceiling: 2400 feet AGL
Clouds: few clouds at 1200 feet AGL
broken clouds at 2400 feet AGL
Weather: no significant weather observed at this time

METAR text: GCXO 221930Z 10006KT 060V140 9999 FEW013 BKN024 12/07 Q1026 NOSIG
Conditions at: GCXO (TENERIFE/LOS ROD, ES) observed 1930 UTC 22 January 2019
Temperature: 12.0°C (54°F)
Dewpoint: 7.0°C (45°F) [RH = 71%]
Pressure (altimeter): 30.30 inches Hg (1026.0 mb)
Winds: from the E (100 degrees) at 7 MPH (6 knots; 3.1 m/s)
Visibility: 6 or more miles (10+ km)
Ceiling: 2400 feet AGL
Clouds: few clouds at 1300 feet AGL
broken clouds at 2400 feet AGL
Weather: no significant weather observed at this time

METAR text: GCXO 221900Z 08007KT 060V120 9999 FEW013 BKN028 12/07 Q1026 NOSIG
Conditions at: GCXO (TENERIFE/LOS ROD, ES) observed 1900 UTC 22 January 2019
Temperature: 12.0°C (54°F)
Dewpoint: 7.0°C (45°F) [RH = 71%]
Pressure (altimeter): 30.30 inches Hg (1026.0 mb)
Winds: from the E (80 degrees) at 8 MPH (7 knots; 3.6 m/s)
Visibility: 6 or more miles (10+ km)
Ceiling: 2800 feet AGL
Clouds: few clouds at 1300 feet AGL
broken clouds at 2800 feet AGL
Weather: no significant weather observed at this time

METAR text: GCXO 221830Z 07006KT 010V100 9999 FEW013 BKN027 12/08 Q1026 NOSIG
Conditions at: GCXO (TENERIFE/LOS ROD, ES) observed 1830 UTC 22 January 2019
Temperature: 12.0°C (54°F)
Dewpoint: 8.0°C (46°F) [RH = 76%]
Pressure (altimeter): 30.30 inches Hg (1026.0 mb)
Winds: from the ENE (70 degrees) at 7 MPH (6 knots; 3.1 m/s)
Visibility: 6 or more miles (10+ km)
Ceiling: 2700 feet AGL
Clouds: few clouds at 1300 feet AGL
broken clouds at 2700 feet AGL
Weather: no significant weather observed at this time

METAR text: GCXO 221800Z 08006KT 030V120 9999 FEW013 BKN025 12/08 Q1026 NOSIG
Conditions at: GCXO (TENERIFE/LOS ROD, ES) observed 1800 UTC 22 January 2019
Temperature: 12.0°C (54°F)
Dewpoint: 8.0°C (46°F) [RH = 76%]
Pressure (altimeter): 30.30 inches Hg (1026.0 mb)
Winds: from the E (80 degrees) at 7 MPH (6 knots; 3.1 m/s)
Visibility: 6 or more miles (10+ km)
Ceiling: 2500 feet AGL
Clouds: few clouds at 1300 feet AGL
broken clouds at 2500 feet AGL
Weather: no significant weather observed at this time

METAR text: GCXO 221730Z 08007KT 030V120 9999 FEW014 BKN027 13/08 Q1025 NOSIG
Conditions at: GCXO (TENERIFE/LOS ROD, ES) observed 1730 UTC 22 January 2019
Temperature: 13.0°C (55°F)
Dewpoint: 8.0°C (46°F) [RH = 72%]
Pressure (altimeter): 30.27 inches Hg (1025.0 mb)
Winds: from the E (80 degrees) at 8 MPH (7 knots; 3.6 m/s)
Visibility: 6 or more miles (10+ km)
Ceiling: 2700 feet AGL
Clouds: few clouds at 1400 feet AGL
broken clouds at 2700 feet AGL
Weather: no significant weather observed at this time

METAR text: GCXO 221700Z 08006KT 030V120 9999 FEW014 BKN030 13/07 Q1026 NOSIG
Conditions at: GCXO (TENERIFE/LOS ROD, ES) observed 1700 UTC 22 January 2019
Temperature: 13.0°C (55°F)
Dewpoint: 7.0°C (45°F) [RH = 67%]
Pressure (altimeter): 30.30 inches Hg (1026.0 mb)
Winds: from the E (80 degrees) at 7 MPH (6 knots; 3.1 m/s)
Visibility: 6 or more miles (10+ km)
Ceiling: 3000 feet AGL
Clouds: few clouds at 1400 feet AGL
broken clouds at 3000 feet AGL
Weather: no significant weather observed at this time

METAR text: GCXO 221630Z 07008KT 030V120 9999 BKN031 13/07 Q1026 NOSIG
Conditions at: GCXO (TENERIFE/LOS ROD, ES) observed 1630 UTC 22 January 2019
Temperature: 13.0°C (55°F)
Dewpoint: 7.0°C (45°F) [RH = 67%]
Pressure (altimeter): 30.30 inches Hg (1026.0 mb)
Winds: from the ENE (70 degrees) at 9 MPH (8 knots; 4.1 m/s)
Visibility: 6 or more miles (10+ km)
Ceiling: 3100 feet AGL
Clouds: broken clouds at 3100 feet AGL
Weather: no significant weather observed at this time

METAR text: GCXO 221600Z 07009KT 030V100 9999 BKN030 13/06 Q1026 NOSIG
Conditions at: GCXO (TENERIFE/LOS ROD, ES) observed 1600 UTC 22 January 2019
Temperature: 13.0°C (55°F)
Dewpoint: 6.0°C (43°F) [RH = 62%]
Pressure (altimeter): 30.30 inches Hg (1026.0 mb)
Winds: from the ENE (70 degrees) at 10 MPH (9 knots; 4.6 m/s)
Visibility: 6 or more miles (10+ km)
Ceiling: 3000 feet AGL
Clouds: broken clouds at 3000 feet AGL
Weather: no significant weather observed at this time

METAR text: GCXO 221530Z 08006KT 050V140 9999 SCT032 14/07 Q1026 NOSIG
Conditions at: GCXO (TENERIFE/LOS ROD, ES) observed 1530 UTC 22 January 2019
Temperature: 14.0°C (57°F)
Dewpoint: 7.0°C (45°F) [RH = 63%]
Pressure (altimeter): 30.30 inches Hg (1026.0 mb)
Winds: from the E (80 degrees) at 7 MPH (6 knots; 3.1 m/s)
Visibility: 6 or more miles (10+ km)
Ceiling: at least 12,000 feet AGL
Clouds: scattered clouds at 3200 feet AGL
Weather: no significant weather observed at this time

METAR text: GCXO 221500Z 02007KT 330V070 9999 SCT030 14/06 Q1026 NOSIG
Conditions at: GCXO (TENERIFE/LOS ROD, ES) observed 1500 UTC 22 January 2019
Temperature: 14.0°C (57°F)
Dewpoint: 6.0°C (43°F) [RH = 58%]
Pressure (altimeter): 30.30 inches Hg (1026.0 mb)
Winds: from the NNE (20 degrees) at 8 MPH (7 knots; 3.6 m/s)
Visibility: 6 or more miles (10+ km)
Ceiling: at least 12,000 feet AGL
Clouds: scattered clouds at 3000 feet AGL
Weather: no significant weather observed at this time

METAR text: GCXO 221430Z 04008KT 350V100 9999 SCT030 14/07 Q1026 NOSIG
Conditions at: GCXO (TENERIFE/LOS ROD, ES) observed 1430 UTC 22 January 2019
Temperature: 14.0°C (57°F)
Dewpoint: 7.0°C (45°F) [RH = 63%]
Pressure (altimeter): 30.30 inches Hg (1026.0 mb)
Winds: from the NE (40 degrees) at 9 MPH (8 knots; 4.1 m/s)
Visibility: 6 or more miles (10+ km)
Ceiling: at least 12,000 feet AGL
Clouds: scattered clouds at 3000 feet AGL
Weather: no significant weather observed at this time

METAR text: GCXO 221400Z 05005KT 010V100 9999 BKN027 13/08 Q1026 NOSIG
Conditions at: GCXO (TENERIFE/LOS ROD, ES) observed 1400 UTC 22 January 2019
Temperature: 13.0°C (55°F)
Dewpoint: 8.0°C (46°F) [RH = 72%]
Pressure (altimeter): 30.30 inches Hg (1026.0 mb)
Winds: from the NE (50 degrees) at 6 MPH (5 knots; 2.6 m/s)
Visibility: 6 or more miles (10+ km)
Ceiling: 2700 feet AGL
Clouds: broken clouds at 2700 feet AGL
Weather: no significant weather observed at this time

METAR text: GCXO 221330Z 08005KT 030V120 9999 FEW018 BKN027 13/09 Q1027 NOSIG
Conditions at: GCXO (TENERIFE/LOS ROD, ES) observed 1330 UTC 22 January 2019
Temperature: 13.0°C (55°F)
Dewpoint: 9.0°C (48°F) [RH = 77%]
Pressure (altimeter): 30.32 inches Hg (1027.0 mb)
Winds: from the E (80 degrees) at 6 MPH (5 knots; 2.6 m/s)
Visibility: 6 or more miles (10+ km)
Ceiling: 2700 feet AGL
Clouds: few clouds at 1800 feet AGL
broken clouds at 2700 feet AGL
Weather: no significant weather observed at this time

METAR text: GCXO 221300Z 07005KT 030V120 9999 FEW012 BKN025 13/10 Q1027 NOSIG
Conditions at: GCXO (TENERIFE/LOS ROD, ES) observed 1300 UTC 22 January 2019
Temperature: 13.0°C (55°F)
Dewpoint: 10.0°C (50°F) [RH = 82%]
Pressure (altimeter): 30.32 inches Hg (1027.0 mb)
Winds: from the ENE (70 degrees) at 6 MPH (5 knots; 2.6 m/s)
Visibility: 6 or more miles (10+ km)
Ceiling: 2500 feet AGL
Clouds: few clouds at 1200 feet AGL
broken clouds at 2500 feet AGL
Weather: no significant weather observed at this time

METAR text: GCXO 221230Z 09007KT 060V120 9999 -DZ FEW012 BKN024 13/09 Q1028 NOSIG
Conditions at: GCXO (TENERIFE/LOS ROD, ES) observed 1230 UTC 22 January 2019
Temperature: 13.0°C (55°F)
Dewpoint: 9.0°C (48°F) [RH = 77%]
Pressure (altimeter): 30.35 inches Hg (1028.0 mb)
Winds: from the E (90 degrees) at 8 MPH (7 knots; 3.6 m/s)
Visibility: 6 or more miles (10+ km)
Ceiling: 2400 feet AGL
Clouds: few clouds at 1200 feet AGL
broken clouds at 2400 feet AGL
Weather: -DZ  (light drizzle)

METAR text: GCXO 221200Z 07006KT 320V100 9999 FEW018 BKN031 13/08 Q1028 NOSIG
Conditions at: GCXO (TENERIFE/LOS ROD, ES) observed 1200 UTC 22 January 2019
Temperature: 13.0°C (55°F)
Dewpoint: 8.0°C (46°F) [RH = 72%]
Pressure (altimeter): 30.35 inches Hg (1028.0 mb)
Winds: from the ENE (70 degrees) at 7 MPH (6 knots; 3.1 m/s)
Visibility: 6 or more miles (10+ km)
Ceiling: 3100 feet AGL
Clouds: few clouds at 1800 feet AGL
broken clouds at 3100 feet AGL
Weather: no significant weather observed at this time

METAR text: GCXO 221130Z 04005KT 300V100 9999 FEW018 BKN033 13/06 Q1028 NOSIG
Conditions at: GCXO (TENERIFE/LOS ROD, ES) observed 1130 UTC 22 January 2019
Temperature: 13.0°C (55°F)
Dewpoint: 6.0°C (43°F) [RH = 62%]
Pressure (altimeter): 30.35 inches Hg (1028.0 mb)
Winds: from the NE (40 degrees) at 6 MPH (5 knots; 2.6 m/s)
Visibility: 6 or more miles (10+ km)
Ceiling: 3300 feet AGL
Clouds: few clouds at 1800 feet AGL
broken clouds at 3300 feet AGL
Weather: no significant weather observed at this time

METAR text: GCXO 221100Z 05006KT 010V120 9999 BKN036 13/07 Q1028 NOSIG
Conditions at: GCXO (TENERIFE/LOS ROD, ES) observed 1100 UTC 22 January 2019
Temperature: 13.0°C (55°F)
Dewpoint: 7.0°C (45°F) [RH = 67%]
Pressure (altimeter): 30.35 inches Hg (1028.0 mb)
Winds: from the NE (50 degrees) at 7 MPH (6 knots; 3.1 m/s)
Visibility: 6 or more miles (10+ km)
Ceiling: 3600 feet AGL
Clouds: broken clouds at 3600 feet AGL
Weather: no significant weather observed at this time

METAR text: GCXO 221030Z 07007KT 010V120 9999 FEW020 BKN035 13/06 Q1027 NOSIG
Conditions at: GCXO (TENERIFE/LOS ROD, ES) observed 1030 UTC 22 January 2019
Temperature: 13.0°C (55°F)
Dewpoint: 6.0°C (43°F) [RH = 62%]
Pressure (altimeter): 30.32 inches Hg (1027.0 mb)
Winds: from the ENE (70 degrees) at 8 MPH (7 knots; 3.6 m/s)
Visibility: 6 or more miles (10+ km)
Ceiling: 3500 feet AGL
Clouds: few clouds at 2000 feet AGL
broken clouds at 3500 feet AGL
Weather: no significant weather observed at this time

METAR text: GCXO 221000Z 06005KT 010V120 9999 FEW017 BKN027 12/08 Q1027 NOSIG
Conditions at: GCXO (TENERIFE/LOS ROD, ES) observed 1000 UTC 22 January 2019
Temperature: 12.0°C (54°F)
Dewpoint: 8.0°C (46°F) [RH = 76%]
Pressure (altimeter): 30.32 inches Hg (1027.0 mb)
Winds: from the ENE (60 degrees) at 6 MPH (5 knots; 2.6 m/s)
Visibility: 6 or more miles (10+ km)
Ceiling: 2700 feet AGL
Clouds: few clouds at 1700 feet AGL
broken clouds at 2700 feet AGL
Weather: no significant weather observed at this time

METAR text: GCXO 220930Z 02005KT 320V070 9999 FEW012 BKN034 12/07 Q1027 NOSIG
Conditions at: GCXO (TENERIFE/LOS ROD, ES) observed 0930 UTC 22 January 2019
Temperature: 12.0°C (54°F)
Dewpoint: 7.0°C (45°F) [RH = 71%]
Pressure (altimeter): 30.32 inches Hg (1027.0 mb)
Winds: from the NNE (20 degrees) at 6 MPH (5 knots; 2.6 m/s)
Visibility: 6 or more miles (10+ km)
Ceiling: 3400 feet AGL
Clouds: few clouds at 1200 feet AGL
broken clouds at 3400 feet AGL
Weather: no significant weather observed at this time

METAR text: GCXO 220900Z 02006KT 340V060 9999 FEW014 BKN034 12/07 Q1027 NOSIG
Conditions at: GCXO (TENERIFE/LOS ROD, ES) observed 0900 UTC 22 January 2019
Temperature: 12.0°C (54°F)
Dewpoint: 7.0°C (45°F) [RH = 71%]
Pressure (altimeter): 30.32 inches Hg (1027.0 mb)
Winds: from the NNE (20 degrees) at 7 MPH (6 knots; 3.1 m/s)
Visibility: 6 or more miles (10+ km)
Ceiling: 3400 feet AGL
Clouds: few clouds at 1400 feet AGL
broken clouds at 3400 feet AGL
Weather: no significant weather observed at this time

METAR text: GCXO 220830Z 01004KT 300V050 9999 -DZ FEW012 BKN032 11/08 Q1027 NOSIG
Conditions at: GCXO (TENERIFE/LOS ROD, ES) observed 0830 UTC 22 January 2019
Temperature: 11.0°C (52°F)
Dewpoint: 8.0°C (46°F) [RH = 82%]
Pressure (altimeter): 30.32 inches Hg (1027.0 mb)
Winds: from the N (10 degrees) at 5 MPH (4 knots; 2.1 m/s)
Visibility: 6 or more miles (10+ km)
Ceiling: 3200 feet AGL
Clouds: few clouds at 1200 feet AGL
broken clouds at 3200 feet AGL
Weather: -DZ  (light drizzle)

METAR text: GCXO 220800Z 35003KT 300V030 9999 FEW010 BKN028 11/08 Q1026 NOSIG
Conditions at: GCXO (TENERIFE/LOS ROD, ES) observed 0800 UTC 22 January 2019
Temperature: 11.0°C (52°F)
Dewpoint: 8.0°C (46°F) [RH = 82%]
Pressure (altimeter): 30.30 inches Hg (1026.0 mb)
Winds: from the N (350 degrees) at 3 MPH (3 knots; 1.5 m/s)
Visibility: 6 or more miles (10+ km)
Ceiling: 2800 feet AGL
Clouds: few clouds at 1000 feet AGL
broken clouds at 2800 feet AGL
Weather: no significant weather observed at this time

Forecast for: GCXO (TENERIFE/LOS ROD, ES)
Text: TAF GCXO 231400Z 2315/2415 03007KT 9999 BKN020 TX16/2414Z TN11/2406Z
Forecast period: 1500 UTC 23 January 2019 to 1500 UTC 24 January 2019
Forecast type: FROM: standard forecast or significant change
Winds: from the NNE (30 degrees) at 8 MPH (7 knots; 3.6 m/s)
Visibility: 6 or more miles 10+ km)
Ceiling: 2000 feet AGL
Clouds: broken clouds at 2000 feet AGL
Weather: no significant weather forecast for this period
Text: PROB30
Forecast period: 1500 to 2100 UTC 23 January 2019
Forecast type: TEMPORARY: The following changes expected for less than half the time period
Visibility: missing
Ceiling: unknown
Clouds: missing
Weather: DZ  (moderate drizzle)
Text: TEMPO 2315/2321 DZ
Forecast period: 0300 to 1000 UTC 24 January 2019
Forecast type: TEMPORARY: The following changes expected for less than half the time period
Visibility: missing
Ceiling: unknown
Clouds: missing
Weather: RA DZ  (moderate rain, moderate drizzle)